Time;durP1;ratioP1;P1;durP2;ratioP2;P2;SDS_P1;SDS_P2;PMS_P1;PMS_P2;Temp;Humidity;BMP_temperature;BMP_pressure;BME280_temperature;BME280_humidity;BME280_pressure;Samples;Min_cycle;Max_cycle;Signal;HPM_P1;HPM_P2
2022/06/06 00:01:10;;;;;;;6.63;2.50;;;;;;;15.72;96.03;98270.72;4135981;28;20653;-87
2022/06/06 00:03:14;;;;;;;6.47;2.33;;;;;;;15.67;96.58;98262.41;4128591;28;21264;-87
2022/06/06 00:05:18;;;;;;;7.83;2.00;;;;;;;15.65;97.91;98265.16;4139553;28;20654;-86
2022/06/06 00:07:21;;;;;;;4.20;2.70;;;;;;;15.70;96.67;98270.84;4123648;28;20738;-86
2022/06/06 00:09:27;;;;;;;4.03;2.30;;;;;;;15.74;98.87;98268.78;4118559;28;20662;-87
2022/06/06 00:11:32;;;;;;;3.60;3.10;;;;;;;15.73;97.03;98259.25;4108952;28;20633;-87
2022/06/06 00:13:35;;;;;;;4.50;2.70;;;;;;;15.76;97.36;98267.69;4127025;28;20646;-86
2022/06/06 00:15:39;;;;;;;4.50;3.00;;;;;;;15.81;99.35;98265.50;4106144;28;20680;-86
2022/06/06 00:17:42;;;;;;;3.10;2.67;;;;;;;15.83;98.88;98257.47;4110341;28;20701;-86
2022/06/06 00:19:45;;;;;;;3.63;2.70;;;;;;;15.79;97.53;98254.28;4106870;28;21027;-87
2022/06/06 00:21:48;;;;;;;4.10;3.07;;;;;;;15.80;96.84;98253.34;4104429;28;20678;-86
2022/06/06 00:23:52;;;;;;;2.90;2.40;;;;;;;15.78;98.86;98249.97;4120014;28;20652;-86
2022/06/06 00:25:57;;;;;;;3.87;1.97;;;;;;;15.72;95.63;98247.06;4118947;28;21209;-86
2022/06/06 00:28:19;;;;;;;3.43;2.20;;;;;;;15.66;95.95;98251.03;4136760;28;20648;-86
2022/06/06 00:30:22;;;;;;;3.43;2.40;;;;;;;15.61;98.16;98247.16;4129773;28;20640;-87
2022/06/06 00:34:52;;;;;;;7.30;2.73;;;;;;;15.60;97.24;98256.81;4129758;28;20680;-86
2022/06/06 00:36:55;;;;;;;3.53;2.73;;;;;;;15.52;97.80;98257.63;4106135;28;20642;-87
2022/06/06 00:38:58;;;;;;;9.13;3.10;;;;;;;15.50;97.55;98260.41;4109738;28;20728;-86
2022/06/06 00:41:03;;;;;;;6.23;3.00;;;;;;;15.48;98.80;98249.16;4143293;28;20659;-86
2022/06/06 00:43:11;;;;;;;3.73;2.40;;;;;;;15.47;98.52;98244.88;4142073;28;20632;-87
2022/06/06 00:45:29;;;;;;;5.90;3.07;;;;;;;15.47;99.22;98246.66;4113514;28;20617;-87
2022/06/06 00:47:40;;;;;;;15.30;3.70;;;;;;;15.42;96.87;98247.03;4116884;28;20722;-86
2022/06/06 00:49:46;;;;;;;6.17;3.40;;;;;;;15.41;99.43;98239.28;4113173;28;20836;-87
2022/06/06 00:51:49;;;;;;;9.50;2.90;;;;;;;15.40;99.45;98241.09;4126008;28;20844;-86
2022/06/06 00:53:55;;;;;;;6.30;2.47;;;;;;;15.40;98.88;98243.72;4134663;28;20631;-87
2022/06/06 00:56:05;;;;;;;10.67;2.73;;;;;;;15.41;98.63;98244.53;4137686;28;20625;-87
2022/06/06 00:58:12;;;;;;;6.10;2.50;;;;;;;15.39;98.29;98246.47;4136222;28;20744;-87
2022/06/06 01:00:18;;;;;;;4.37;2.37;;;;;;;15.36;97.06;98241.50;4111738;28;20698;-87
2022/06/06 01:02:21;;;;;;;7.30;2.30;;;;;;;15.32;98.03;98234.81;4124059;28;20742;-87
2022/06/06 01:04:26;;;;;;;8.87;2.37;;;;;;;15.31;98.65;98238.44;4120027;28;20614;-87
2022/06/06 01:06:31;;;;;;;6.50;2.00;;;;;;;15.29;97.69;98240.34;4121145;28;20632;-87
2022/06/06 01:08:37;;;;;;;8.63;2.20;;;;;;;15.26;98.66;98236.19;4141188;28;20636;-87
2022/06/06 01:10:42;;;;;;;17.70;3.33;;;;;;;15.26;97.67;98224.81;4120728;28;21080;-86
2022/06/06 01:12:48;;;;;;;26.53;3.90;;;;;;;15.22;97.98;98239.19;4123669;28;20634;-86
2022/06/06 01:14:54;;;;;;;8.90;2.80;;;;;;;15.15;97.17;98233.59;4102760;28;20642;-86
2022/06/06 01:17:02;;;;;;;5.00;3.00;;;;;;;15.13;97.87;98234.69;4105474;28;20669;-86
2022/06/06 01:19:39;;;;;;;7.43;3.27;;;;;;;15.14;98.06;98231.09;4080062;29;20730;-87
2022/06/06 01:22:10;;;;;;;3.30;1.80;;;;;;;15.17;98.39;98236.13;4072231;29;20781;-87
2022/06/06 01:24:31;;;;;;;2.37;2.07;;;;;;;15.20;97.50;98233.25;4117537;28;20646;-87
2022/06/06 01:26:55;;;;;;;2.63;2.00;;;;;;;15.20;99.46;98228.81;4110466;28;20634;-87
2022/06/06 01:29:04;;;;;;;2.80;2.17;;;;;;;15.20;98.27;98222.75;4133466;28;20748;-87
2022/06/06 01:31:10;;;;;;;3.40;2.43;;;;;;;15.19;97.08;98223.69;4126296;28;20648;-87
2022/06/06 01:33:15;;;;;;;6.10;2.70;;;;;;;15.18;98.58;98220.25;4109718;28;20625;-86
2022/06/06 01:35:29;;;;;;;3.40;2.20;;;;;;;15.17;97.10;98208.06;4120404;28;20644;-86
2022/06/06 01:37:37;;;;;;;2.90;2.17;;;;;;;15.14;97.58;98213.53;4107648;28;20646;-86
2022/06/06 01:39:40;;;;;;;3.07;2.60;;;;;;;15.13;98.00;98213.66;4140155;28;20720;-86
2022/06/06 01:41:49;;;;;;;3.90;3.00;;;;;;;15.12;99.32;98212.00;4110611;28;20654;-86
2022/06/06 01:43:56;;;;;;;3.17;2.87;;;;;;;15.10;98.84;98220.00;4117336;28;20629;-86
2022/06/06 01:46:03;;;;;;;3.13;2.47;;;;;;;15.11;97.70;98211.16;4125257;28;20665;-86
2022/06/06 01:48:33;;;;;;;8.17;2.77;;;;;;;15.09;99.22;98215.72;4139353;28;20702;-87
2022/06/06 01:50:38;;;;;;;17.90;3.03;;;;;;;15.07;98.45;98216.81;4124686;28;20633;-86
2022/06/06 01:52:53;;;;;;;8.93;2.70;;;;;;;15.04;98.48;98209.19;4130434;28;20732;-87
2022/06/06 01:54:58;;;;;;;11.43;2.07;;;;;;;15.03;97.83;98204.88;4141257;28;20983;-87
2022/06/06 01:57:02;;;;;;;10.83;3.10;;;;;;;15.00;98.45;98213.03;4136650;28;20640;-86
2022/06/06 01:59:05;;;;;;;4.83;2.07;;;;;;;15.01;98.67;98214.69;4119700;28;20631;-86
2022/06/06 02:01:11;;;;;;;8.57;2.53;;;;;;;15.03;97.67;98210.13;4122003;28;21305;-86
2022/06/06 02:03:14;;;;;;;9.00;2.20;;;;;;;14.99;99.11;98195.63;4106626;28;21425;-86
2022/06/06 02:05:18;;;;;;;9.80;2.33;;;;;;;14.99;97.31;98200.88;4126905;28;21095;-87
2022/06/06 02:07:21;;;;;;;5.57;1.87;;;;;;;14.98;98.87;98201.00;4123844;28;20632;-87
2022/06/06 02:09:24;;;;;;;11.00;2.73;;;;;;;14.97;99.06;98204.56;4140721;28;20686;-87
2022/06/06 02:11:28;;;;;;;5.67;2.00;;;;;;;14.93;97.71;98196.13;4105820;28;20629;-87
2022/06/06 02:13:31;;;;;;;4.83;1.63;;;;;;;14.93;98.95;98196.13;4130096;28;20629;-87
2022/06/06 02:15:34;;;;;;;14.60;2.37;;;;;;;14.90;98.91;98199.00;4132790;28;20639;-86
2022/06/06 02:17:39;;;;;;;6.90;2.03;;;;;;;14.88;97.94;98198.28;4139828;28;21235;-87
2022/06/06 02:19:43;;;;;;;3.80;1.63;;;;;;;14.88;97.95;98202.72;4139004;28;20718;-86
2022/06/06 02:21:46;;;;;;;2.87;2.13;;;;;;;14.87;98.51;98196.63;4142317;28;20659;-86
2022/06/06 02:23:49;;;;;;;3.90;1.83;;;;;;;14.87;99.36;98207.16;4132027;28;20643;-87
2022/06/06 02:25:54;;;;;;;13.80;2.20;;;;;;;14.85;97.95;98197.72;4139379;28;20644;-86
2022/06/06 02:27:57;;;;;;;3.50;2.30;;;;;;;14.85;97.92;98205.59;4136511;28;21166;-86
2022/06/06 02:30:01;;;;;;;3.57;2.40;;;;;;;14.83;98.00;98202.28;4127181;28;20724;-87
2022/06/06 02:32:08;;;;;;;2.80;2.27;;;;;;;14.86;99.83;98208.09;4129758;28;21238;-86
2022/06/06 02:34:13;;;;;;;3.07;2.33;;;;;;;14.88;98.73;98208.78;4129754;28;20628;-87
2022/06/06 02:36:21;;;;;;;4.60;2.23;;;;;;;14.89;99.47;98204.41;4127189;28;20898;-87
2022/06/06 02:38:24;;;;;;;3.23;2.50;;;;;;;14.92;100.00;98209.38;4138667;28;21252;-87
2022/06/06 02:40:30;;;;;;;2.57;2.30;;;;;;;14.92;97.78;98210.22;4112675;28;20639;-86
2022/06/06 02:42:33;;;;;;;4.03;2.30;;;;;;;14.91;98.11;98215.59;4120372;28;20753;-86
2022/06/06 02:44:36;;;;;;;3.37;2.37;;;;;;;14.92;98.55;98219.91;4123353;28;20632;-87
2022/06/06 02:46:39;;;;;;;3.77;2.37;;;;;;;14.90;98.88;98211.28;4120726;28;20722;-87
2022/06/06 02:48:42;;;;;;;3.70;2.57;;;;;;;14.90;99.16;98216.53;4126282;28;20648;-87
2022/06/06 02:50:47;;;;;;;2.97;2.40;;;;;;;14.88;98.21;98214.03;4115009;28;20632;-87
2022/06/06 02:52:50;;;;;;;3.87;2.20;;;;;;;14.91;98.55;98219.03;4141480;28;20655;-86
2022/06/06 02:54:53;;;;;;;4.60;2.30;;;;;;;14.93;98.65;98222.41;4116975;28;21199;-86
2022/06/06 02:56:56;;;;;;;3.23;2.93;;;;;;;14.93;99.75;98222.41;4118916;28;20631;-87
2022/06/06 02:59:03;;;;;;;3.90;2.57;;;;;;;14.98;99.67;98220.22;4124969;28;20635;-87
2022/06/06 03:01:09;;;;;;;5.13;2.77;;;;;;;14.97;100.00;98229.03;4122252;28;20629;-86
2022/06/06 03:03:12;;;;;;;3.80;3.23;;;;;;;14.98;99.65;98222.84;4117365;28;20669;-86
2022/06/06 03:05:17;;;;;;;3.20;2.90;;;;;;;15.03;100.00;98225.91;4127170;28;21042;-86
2022/06/06 03:07:39;;;;;;;3.73;2.80;;;;;;;15.05;100.00;98229.25;4124353;28;20640;-87
2022/06/06 03:09:51;;;;;;;3.17;2.60;;;;;;;15.09;100.00;98230.63;4121774;28;20639;-87
2022/06/06 03:12:04;;;;;;;3.53;2.60;;;;;;;15.07;100.00;98235.19;4130226;28;20634;-87
2022/06/06 03:14:22;;;;;;;4.60;2.43;;;;;;;15.07;100.00;98233.41;4116494;28;20636;-86
2022/06/06 03:22:11;;;;;;;4.73;2.67;;;;;;;15.00;99.95;98238.47;4120444;28;21015;-86
2022/06/06 03:24:24;;;;;;;4.00;2.50;;;;;;;14.97;99.01;98242.16;4137073;28;20656;-86
2022/06/06 03:26:34;;;;;;;5.43;3.00;;;;;;;14.98;99.37;98237.78;4124499;28;20646;-86
2022/06/06 03:28:42;;;;;;;3.27;2.40;;;;;;;14.96;99.88;98234.41;4127792;28;21032;-86
2022/06/06 03:30:54;;;;;;;3.83;2.47;;;;;;;14.95;99.86;98241.47;4134401;28;20718;-87
2022/06/06 03:33:07;;;;;;;4.07;2.77;;;;;;;14.96;98.85;98245.78;4119696;28;20682;-86
2022/06/06 03:35:16;;;;;;;4.07;2.97;;;;;;;14.95;99.80;98236.22;4109778;28;20652;-87
2022/06/06 03:37:26;;;;;;;3.67;2.93;;;;;;;14.94;99.83;98245.06;4138425;28;20671;-87
2022/06/06 03:39:39;;;;;;;3.30;2.50;;;;;;;14.96;99.08;98244.91;4122360;28;20690;-86
2022/06/06 03:41:50;;;;;;;4.60;2.93;;;;;;;14.95;99.83;98244.09;4119922;28;21107;-87
2022/06/06 03:43:57;;;;;;;6.50;2.60;;;;;;;14.96;99.73;98251.03;4141425;28;20662;-87
2022/06/06 03:46:10;;;;;;;11.00;3.27;;;;;;;15.00;98.66;98252.41;4128041;28;20636;-86
2022/06/06 03:48:23;;;;;;;8.03;3.00;;;;;;;15.02;100.00;98257.56;4120884;28;20637;-87
2022/06/06 03:50:32;;;;;;;6.93;3.33;;;;;;;15.00;99.86;98255.06;4105156;28;20656;-86
2022/06/06 03:52:39;;;;;;;13.50;3.40;;;;;;;15.01;98.42;98254.09;4116065;28;20720;-86
2022/06/06 03:54:48;;;;;;;10.10;3.50;;;;;;;15.03;99.25;98261.84;4107869;28;20667;-87
2022/06/06 03:57:03;;;;;;;19.07;3.93;;;;;;;15.07;100.00;98269.34;4112446;28;20669;-87
2022/06/06 03:59:08;;;;;;;10.23;3.60;;;;;;;15.10;100.00;98272.53;4101674;28;20647;-87
2022/06/06 04:01:14;;;;;;;16.20;4.23;;;;;;;15.11;100.00;98282.09;4129779;28;20640;-87
2022/06/06 04:03:17;;;;;;;20.23;4.30;;;;;;;15.14;100.00;98278.41;4140080;28;20667;-87
2022/06/06 04:05:22;;;;;;;25.83;4.57;;;;;;;15.17;100.00;98279.00;4109712;28;20689;-87
2022/06/06 04:07:25;;;;;;;15.00;4.80;;;;;;;15.21;100.00;98277.75;4142415;28;20717;-87
2022/06/06 04:09:52;;;;;;;19.33;4.17;;;;;;;15.24;100.00;98272.25;4127131;28;20740;-87
2022/06/06 04:12:02;;;;;;;11.77;4.53;;;;;;;15.25;100.00;98279.19;4116680;28;20637;-87
2022/06/06 04:14:16;;;;;;;10.57;6.23;;;;;;;15.28;100.00;98286.81;4131967;28;20614;-87
2022/06/06 04:16:25;;;;;;;21.83;6.27;;;;;;;15.31;100.00;98296.25;4126369;28;20644;-87
2022/06/06 04:18:36;;;;;;;15.30;6.67;;;;;;;15.34;100.00;98286.31;4135661;28;20670;-86
2022/06/06 04:20:54;;;;;;;20.50;6.67;;;;;;;15.37;100.00;98285.22;4121090;28;20898;-87
2022/06/06 04:23:22;;;;;;;22.87;5.43;;;;;;;15.42;100.00;98277.78;4110035;28;20727;-86
2022/06/06 04:25:33;;;;;;;18.57;5.30;;;;;;;15.46;100.00;98273.94;4122521;28;20642;-86
2022/06/06 04:27:40;;;;;;;8.70;5.90;;;;;;;15.46;100.00;98285.25;4124310;28;20643;-87
2022/06/06 04:29:50;;;;;;;11.80;5.50;;;;;;;15.46;100.00;98277.38;4116950;28;20779;-87
2022/06/06 04:32:07;;;;;;;14.83;5.40;;;;;;;15.45;100.00;98273.06;4129478;28;21211;-87
2022/06/06 04:34:22;;;;;;;16.53;5.60;;;;;;;15.48;99.89;98275.44;4121279;28;20672;-87
2022/06/06 04:36:31;;;;;;;12.00;5.60;;;;;;;15.52;100.00;98279.50;4104038;28;20729;-87
2022/06/06 04:38:42;;;;;;;10.17;6.20;;;;;;;15.54;100.00;98282.81;4128834;28;20679;-87
2022/06/06 04:40:52;;;;;;;6.10;3.73;;;;;;;15.57;100.00;98274.66;4124853;28;20649;-87
2022/06/06 04:43:00;;;;;;;11.20;4.70;;;;;;;15.59;100.00;98278.84;4128505;28;20625;-87
2022/06/06 04:45:10;;;;;;;10.17;5.03;;;;;;;15.62;100.00;98273.31;4126776;28;20742;-87
2022/06/06 04:47:17;;;;;;;5.47;4.40;;;;;;;15.65;100.00;98274.84;4113012;28;20630;-86
2022/06/06 04:49:21;;;;;;;5.40;4.70;;;;;;;15.72;100.00;98278.63;4110090;28;20640;-87
2022/06/06 04:51:24;;;;;;;4.70;4.07;;;;;;;15.75;100.00;98271.28;4130529;28;20633;-87
2022/06/06 04:53:30;;;;;;;5.43;4.40;;;;;;;15.80;100.00;98279.63;4113591;28;20993;-87
2022/06/06 04:55:33;;;;;;;5.30;4.07;;;;;;;15.86;100.00;98276.47;4105530;28;20902;-87
2022/06/06 04:57:43;;;;;;;4.57;4.17;;;;;;;15.92;100.00;98273.31;4148138;28;20724;-87
2022/06/06 04:59:47;;;;;;;4.00;3.60;;;;;;;15.98;100.00;98266.66;4136913;28;20739;-87
2022/06/06 05:01:50;;;;;;;4.87;3.80;;;;;;;16.03;100.00;98273.22;4123393;28;20650;-87
2022/06/06 05:03:55;;;;;;;4.40;3.93;;;;;;;16.08;100.00;98274.44;4122417;28;21248;-87
2022/06/06 05:06:10;;;;;;;5.73;4.10;;;;;;;16.17;99.98;98283.34;4122663;28;20991;-87
2022/06/06 05:08:23;;;;;;;5.40;4.17;;;;;;;16.25;99.93;98291.44;4120691;28;20723;-87
2022/06/06 05:10:43;;;;;;;4.37;3.97;;;;;;;16.30;100.00;98291.88;4119047;28;21226;-86
2022/06/06 05:13:19;;;;;;;4.50;3.97;;;;;;;16.35;100.00;98294.94;4117022;28;20987;-86
2022/06/06 05:15:30;;;;;;;4.73;4.10;;;;;;;16.40;99.63;98290.09;4107606;28;20722;-86
2022/06/06 05:17:49;;;;;;;5.40;3.90;;;;;;;16.41;100.00;98291.78;4119303;28;21228;-87
2022/06/06 05:20:03;;;;;;;7.60;4.10;;;;;;;16.42;100.00;98289.00;4120833;28;20646;-87
2022/06/06 05:22:20;;;;;;;6.07;4.33;;;;;;;16.48;100.00;98295.50;4119851;28;20795;-87
2022/06/06 05:24:34;;;;;;;4.33;3.70;;;;;;;16.57;100.00;98292.91;4118581;28;21244;-87
2022/06/06 05:26:52;;;;;;;5.10;4.33;;;;;;;16.73;99.97;98299.31;4135136;28;20663;-87
2022/06/06 05:29:07;;;;;;;6.97;3.90;;;;;;;16.90;99.49;98296.00;4135598;28;20654;-87
2022/06/06 05:31:18;;;;;;;4.87;4.37;;;;;;;17.02;98.15;98308.06;4125739;28;21098;-86
2022/06/06 05:33:27;;;;;;;5.70;4.17;;;;;;;17.10;97.77;98313.47;4123183;28;20645;-86
2022/06/06 05:35:41;;;;;;;5.10;4.50;;;;;;;17.24;98.60;98313.88;4144516;28;21004;-87
2022/06/06 05:37:53;;;;;;;4.70;4.20;;;;;;;17.45;98.68;98313.72;4126681;28;20665;-86
2022/06/06 05:40:10;;;;;;;4.63;4.23;;;;;;;17.71;99.45;98318.25;4121217;28;21116;-87
2022/06/06 05:42:25;;;;;;;6.43;4.13;;;;;;;17.82;98.87;98324.19;4121711;28;20649;-87
2022/06/06 05:44:36;;;;;;;4.53;4.13;;;;;;;18.03;98.72;98324.81;4138196;28;20653;-87
2022/06/06 05:46:48;;;;;;;5.20;4.50;;;;;;;18.12;97.64;98331.88;4122480;28;20653;-87
2022/06/06 05:49:14;;;;;;;5.00;4.50;;;;;;;18.11;97.17;98330.22;4140966;28;20623;-87
2022/06/06 05:51:25;;;;;;;5.20;4.43;;;;;;;18.22;97.82;98322.13;4105383;28;21059;-87
2022/06/06 05:54:11;;;;;;;5.07;4.60;;;;;;;18.54;96.50;98320.72;4132118;28;20642;-87
2022/06/06 05:56:29;;;;;;;6.50;4.60;;;;;;;18.87;94.85;98322.72;4142558;28;20646;-86
2022/06/06 05:58:45;;;;;;;5.83;4.70;;;;;;;19.12;93.75;98320.19;4137744;28;20631;-87
2022/06/06 06:01:01;;;;;;;5.03;4.63;;;;;;;19.25;91.96;98325.94;4128686;28;21098;-87
2022/06/06 06:03:33;;;;;;;5.60;5.07;;;;;;;19.48;92.03;98323.50;4129771;28;21047;-86
2022/06/06 06:05:44;;;;;;;6.93;4.47;;;;;;;19.79;90.15;98321.22;4103926;28;21274;-87
2022/06/06 06:07:57;;;;;;;5.27;4.47;;;;;;;20.08;91.14;98333.19;4140260;28;20629;-87
2022/06/06 06:10:13;;;;;;;5.50;4.80;;;;;;;20.15;89.52;98335.03;4131070;28;20667;-87
2022/06/06 06:12:52;;;;;;;6.00;5.10;;;;;;;20.36;90.77;98328.34;4126637;28;20632;-87
2022/06/06 06:15:26;;;;;;;6.20;4.67;;;;;;;20.73;90.11;98336.78;4143899;28;20627;-87
2022/06/06 06:17:33;;;;;;;5.63;4.80;;;;;;;21.04;90.70;98332.56;4119796;28;20731;-87
2022/06/06 06:19:47;;;;;;;5.67;5.17;;;;;;;21.39;90.26;98341.91;4123024;28;20693;-87
2022/06/06 06:21:57;;;;;;;6.00;5.30;;;;;;;21.52;89.36;98331.63;4127701;28;21238;-87
2022/06/06 06:24:04;;;;;;;6.57;5.33;;;;;;;21.50;89.57;98349.56;4124719;28;20628;-87
2022/06/06 06:26:08;;;;;;;6.23;5.73;;;;;;;21.58;89.41;98351.41;4123335;28;20689;-87
2022/06/06 06:28:12;;;;;;;6.73;5.30;;;;;;;21.76;89.98;98349.41;4137285;28;20644;-87
2022/06/06 06:30:16;;;;;;;11.03;7.20;;;;;;;21.77;89.70;98357.19;4123195;28;20678;-87
2022/06/06 06:32:32;;;;;;;8.10;6.10;;;;;;;21.84;90.43;98353.69;4106800;28;21205;-87
2022/06/06 06:34:44;;;;;;;5.40;4.90;;;;;;;21.91;89.06;98362.66;4133925;28;20631;-87
2022/06/06 06:36:53;;;;;;;5.50;4.97;;;;;;;21.80;89.46;98362.19;4141066;28;20666;-87
2022/06/06 06:39:17;;;;;;;6.20;5.60;;;;;;;21.66;89.67;98362.00;4123903;28;20808;-87
2022/06/06 06:41:26;;;;;;;6.57;5.60;;;;;;;21.58;89.26;98360.19;4123274;28;21284;-87
2022/06/06 06:43:42;;;;;;;6.23;5.63;;;;;;;21.79;88.91;98363.16;4123190;28;20630;-87
2022/06/06 06:45:50;;;;;;;5.80;5.20;;;;;;;22.14;88.61;98366.25;4134943;28;20647;-87
2022/06/06 06:47:59;;;;;;;7.00;6.30;;;;;;;22.51;88.34;98361.22;4136153;28;20718;-87
2022/06/06 06:50:09;;;;;;;6.87;6.20;;;;;;;22.64;86.88;98370.28;4120036;28;20645;-87
2022/06/06 06:52:26;;;;;;;6.57;5.97;;;;;;;22.59;85.09;98366.50;4138547;28;20622;-87
2022/06/06 06:54:38;;;;;;;6.43;5.83;;;;;;;22.61;86.64;98375.13;4138860;28;20714;-88
2022/06/06 06:57:06;;;;;;;7.07;6.33;;;;;;;22.57;83.50;98373.81;4136140;28;20631;-85
2022/06/06 06:59:15;;;;;;;8.63;6.80;;;;;;;22.59;83.29;98377.13;4136854;28;20654;-85
2022/06/06 07:01:24;;;;;;;7.60;6.67;;;;;;;22.62;83.33;98364.31;4114527;28;21231;-85
2022/06/06 07:08:45;;;;;;;10.37;6.40;;;;;;;23.20;82.61;98370.88;4143208;28;20646;-85
2022/06/06 07:11:02;;;;;;;6.83;6.10;;;;;;;23.30;82.93;98374.97;4112620;28;20645;-85
2022/06/06 07:13:15;;;;;;;8.57;6.50;;;;;;;23.36;82.47;98371.59;4122580;28;20615;-85
2022/06/06 07:15:22;;;;;;;7.07;6.37;;;;;;;23.28;80.84;98376.13;4134913;28;20622;-85
2022/06/06 07:17:27;;;;;;;6.87;6.17;;;;;;;23.11;82.36;98368.41;4116685;28;20727;-84
2022/06/06 07:19:33;;;;;;;7.00;6.30;;;;;;;23.03;82.94;98379.94;4137262;28;20652;-85
2022/06/06 07:21:38;;;;;;;7.60;6.90;;;;;;;22.98;81.86;98373.50;4123601;28;21248;-85
2022/06/06 07:23:42;;;;;;;9.07;6.67;;;;;;;22.96;82.53;98371.00;4129009;28;21078;-84
2022/06/06 07:25:49;;;;;;;7.70;6.60;;;;;;;23.01;82.24;98365.97;4121100;28;20645;-85
2022/06/06 07:27:52;;;;;;;9.27;6.60;;;;;;;23.09;82.78;98365.09;4120513;28;20719;-85
2022/06/06 07:29:55;;;;;;;7.00;6.40;;;;;;;23.17;80.20;98362.38;4141486;28;20722;-85
2022/06/06 07:32:12;;;;;;;7.67;6.90;;;;;;;23.26;80.97;98367.50;4140134;28;20735;-85
2022/06/06 07:34:41;;;;;;;6.87;5.80;;;;;;;23.37;81.64;98369.75;4143104;28;20626;-85
2022/06/06 07:36:54;;;;;;;7.87;6.80;;;;;;;23.37;80.47;98362.59;4104757;28;20722;-84
2022/06/06 07:39:06;;;;;;;7.80;6.27;;;;;;;23.38;79.25;98356.25;4134711;28;20639;-84
2022/06/06 07:41:18;;;;;;;7.07;6.37;;;;;;;23.38;78.78;98364.25;4135003;28;20630;-85
2022/06/06 07:43:33;;;;;;;6.93;6.23;;;;;;;23.50;78.85;98362.84;4136192;28;20674;-85
2022/06/06 07:45:40;;;;;;;7.30;6.60;;;;;;;23.70;78.44;98359.53;4121134;28;20651;-84
2022/06/06 07:47:56;;;;;;;7.37;6.67;;;;;;;24.04;78.90;98359.88;4137605;28;20645;-84
2022/06/06 07:50:04;;;;;;;8.20;6.30;;;;;;;24.35;78.67;98360.59;4117507;28;20650;-84
2022/06/06 07:52:16;;;;;;;8.10;6.27;;;;;;;24.63;74.79;98353.56;4127950;28;20641;-84
2022/06/06 07:54:35;;;;;;;6.77;6.17;;;;;;;24.92;75.22;98351.69;4130027;28;20657;-85
2022/06/06 07:56:46;;;;;;;6.40;5.80;;;;;;;24.98;72.84;98351.78;4138053;28;20814;-84
2022/06/06 07:58:57;;;;;;;7.00;6.23;;;;;;;24.95;72.30;98346.00;4112543;28;20683;-84
2022/06/06 08:01:08;;;;;;;9.00;5.53;;;;;;;24.75;74.49;98345.75;4144592;28;20684;-85
2022/06/06 08:03:16;;;;;;;8.50;6.00;;;;;;;24.80;73.12;98342.53;4124061;28;20635;-85
2022/06/06 08:05:45;;;;;;;8.33;6.80;;;;;;;24.82;71.97;98345.81;4138189;28;20649;-85
2022/06/06 08:07:55;;;;;;;6.47;5.87;;;;;;;24.65;71.99;98333.69;4138302;28;20743;-84
2022/06/06 08:10:11;;;;;;;7.43;6.63;;;;;;;24.42;75.10;98335.66;4121769;28;21082;-85
2022/06/06 08:12:27;;;;;;;7.33;6.23;;;;;;;24.31;76.15;98341.44;4129132;28;20633;-85
2022/06/06 08:14:41;;;;;;;8.67;6.03;;;;;;;24.20;76.03;98333.84;4133089;28;21062;-85
2022/06/06 08:17:00;;;;;;;8.57;6.70;;;;;;;24.25;73.99;98334.16;4121934;28;20648;-85
2022/06/06 08:19:34;;;;;;;6.80;6.20;;;;;;;24.13;75.17;98334.81;4119130;28;20724;-84
2022/06/06 08:21:41;;;;;;;6.70;5.73;;;;;;;24.04;74.13;98332.38;4101338;28;20678;-85
2022/06/06 08:23:46;;;;;;;7.13;6.43;;;;;;;24.34;75.78;98333.09;4108551;28;20732;-85
2022/06/06 08:25:50;;;;;;;7.60;6.33;;;;;;;24.72;75.58;98342.63;4105488;28;20679;-85
2022/06/06 08:27:53;;;;;;;8.30;6.37;;;;;;;24.83;75.75;98329.63;4089951;28;1099974;-84
2022/06/06 08:29:59;;;;;;;6.57;5.97;;;;;;;25.13;75.29;98329.38;4129394;28;20712;-85
2022/06/06 08:32:07;;;;;;;6.80;6.10;;;;;;;25.22;73.80;98328.25;4116957;28;20636;-84
2022/06/06 08:34:12;;;;;;;6.10;5.60;;;;;;;25.24;74.06;98328.91;4138166;28;21044;-84
2022/06/06 08:36:31;;;;;;;10.77;5.70;;;;;;;25.36;75.13;98327.34;4126274;28;20633;-84
2022/06/06 08:38:44;;;;;;;7.00;5.97;;;;;;;25.62;75.71;98333.78;4124862;28;20661;-85
2022/06/06 08:41:04;;;;;;;5.73;5.13;;;;;;;25.41;73.33;98327.63;4121501;28;21231;-85
2022/06/06 08:43:18;;;;;;;6.20;5.60;;;;;;;25.58;75.28;98324.50;4112054;28;20630;-85
2022/06/06 08:45:23;;;;;;;5.97;5.37;;;;;;;25.83;73.14;98328.44;4129682;28;20649;-85
2022/06/06 08:47:32;;;;;;;6.40;5.80;;;;;;;25.71;73.84;98323.84;4129006;28;20659;-85
2022/06/06 08:52:39;;;;;;;7.30;5.23;;;;;;;25.17;73.16;98314.63;4119569;28;20637;-84
2022/06/06 08:55:08;;;;;;;5.87;5.37;;;;;;;25.19;72.25;98317.13;4127806;28;20710;-84
2022/06/06 08:57:27;;;;;;;6.53;5.83;;;;;;;24.95;73.02;98312.09;4115469;28;20641;-85
2022/06/06 09:00:05;;;;;;;5.90;5.30;;;;;;;24.68;73.83;98310.13;4132607;28;20969;-85
2022/06/06 09:03:02;;;;;;;5.63;5.13;;;;;;;25.09;71.89;98315.78;4121936;28;21014;-85
2022/06/06 09:05:29;;;;;;;6.40;5.57;;;;;;;25.41;72.49;98311.59;4081453;29;20649;-85
2022/06/06 09:07:54;;;;;;;6.00;5.37;;;;;;;25.63;70.04;98315.91;4099600;29;20703;-84
2022/06/06 09:10:42;;;;;;;7.30;4.90;;;;;;;25.94;69.50;98314.53;4115793;28;20717;-84
2022/06/06 09:13:19;;;;;;;6.10;5.00;;;;;;;26.33;71.24;98321.00;4138057;28;20630;-85
2022/06/06 09:15:48;;;;;;;5.90;5.10;;;;;;;26.28;69.90;98310.09;4131424;28;21007;-85
2022/06/06 09:18:15;;;;;;;5.77;5.10;;;;;;;25.96;68.50;98312.50;4101345;28;20636;-85
2022/06/06 09:20:47;;;;;;;5.83;5.33;;;;;;;25.91;71.29;98306.09;4135149;28;20638;-85
2022/06/06 09:23:29;;;;;;;5.83;5.33;;;;;;;25.74;69.02;98307.38;4119237;28;20639;-85
2022/06/06 09:25:38;;;;;;;5.80;4.70;;;;;;;25.47;71.54;98304.63;4124694;28;20710;-85
2022/06/06 09:28:18;;;;;;;5.47;4.97;;;;;;;25.15;71.81;98294.47;4106405;28;20649;-85
2022/06/06 09:30:34;;;;;;;5.40;4.70;;;;;;;25.11;71.98;98282.53;4137602;28;20683;-85
2022/06/06 09:33:05;;;;;;;5.43;4.83;;;;;;;25.23;71.81;98291.69;4113742;28;20645;-85
2022/06/06 09:35:37;;;;;;;5.90;5.30;;;;;;;25.50;71.22;98289.06;4127763;28;20787;-85
2022/06/06 09:37:59;;;;;;;6.30;4.50;;;;;;;25.74;72.13;98288.66;4141233;28;20667;-85
2022/06/06 09:40:19;;;;;;;5.67;5.17;;;;;;;25.80;71.77;98286.06;4121489;28;20631;-84
2022/06/06 09:42:38;;;;;;;5.40;4.90;;;;;;;25.60;69.93;98278.84;4132002;28;20735;-85
2022/06/06 09:45:13;;;;;;;5.37;4.87;;;;;;;25.30;69.35;98282.72;4140627;28;20639;-85
2022/06/06 09:48:00;;;;;;;6.60;5.10;;;;;;;25.08;72.41;98274.06;4083355;28;20780;-85
2022/06/06 09:50:27;;;;;;;6.80;5.63;;;;;;;24.83;72.36;98273.56;4106145;28;20633;-85
2022/06/06 09:53:02;;;;;;;5.93;5.43;;;;;;;24.71;74.63;98275.06;4133910;28;20703;-84
2022/06/06 10:00:44;;;;;;;5.70;5.03;;;;;;;25.30;72.86;98272.03;4104015;28;20721;-84
2022/06/06 10:03:31;;;;;;;6.13;5.50;;;;;;;25.33;70.18;98265.47;4135943;28;20635;-84
2022/06/06 10:06:12;;;;;;;5.57;5.07;;;;;;;25.20;69.68;98263.50;4103663;28;20635;-85
2022/06/06 10:08:50;;;;;;;5.80;5.20;;;;;;;25.10;69.33;98261.34;4139334;28;20757;-84
2022/06/06 10:11:26;;;;;;;8.90;5.40;;;;;;;25.19;72.67;98261.84;4122893;28;20642;-85
2022/06/06 10:13:46;;;;;;;5.30;4.80;;;;;;;24.95;71.43;98274.72;4108921;28;21217;-84
2022/06/06 10:16:10;;;;;;;5.60;5.10;;;;;;;24.72;71.19;98259.91;4125881;28;20654;-85
2022/06/06 10:18:32;;;;;;;6.93;5.23;;;;;;;24.64;73.27;98251.97;4138289;28;21003;-85
2022/06/06 10:21:01;;;;;;;5.00;4.50;;;;;;;24.59;72.44;98261.59;4130103;28;21209;-85
2022/06/06 10:23:16;;;;;;;6.03;5.10;;;;;;;24.86;70.55;98262.50;4128947;28;21149;-84
2022/06/06 10:25:39;;;;;;;5.37;4.87;;;;;;;25.19;70.97;98256.50;4126997;28;20637;-85
2022/06/06 10:28:01;;;;;;;8.63;5.00;;;;;;;25.47;72.41;98256.53;4139124;28;20725;-85
2022/06/06 10:30:12;;;;;;;4.57;3.87;;;;;;;25.60;69.39;98246.78;4122816;28;21319;-85
2022/06/06 10:32:26;;;;;;;4.87;4.00;;;;;;;25.75;72.17;98235.00;4107131;28;20633;-85
2022/06/06 10:34:47;;;;;;;4.57;4.17;;;;;;;25.92;69.29;98244.38;4119456;28;20639;-84
2022/06/06 10:37:01;;;;;;;4.90;4.15;;;;;;;26.05;68.53;98236.44;4128948;28;20773;-85
2022/06/06 10:39:36;;;;;;;5.00;4.50;;;;;;;25.95;67.00;98237.81;4123907;28;20649;-84
2022/06/06 10:42:15;;;;;;;4.90;4.43;;;;;;;25.98;69.10;98234.72;4141364;28;20672;-84
2022/06/06 10:45:03;;;;;;;4.13;3.70;;;;;;;26.06;66.12;98230.06;4143019;28;20625;-84
2022/06/06 10:47:18;;;;;;;4.73;4.20;;;;;;;26.24;67.59;98233.84;4138069;28;20663;-85